Time;durP1;ratioP1;P1;durP2;ratioP2;P2;SDS_P1;SDS_P2;PMS_P1;PMS_P2;Temp;Humidity;BMP_temperature;BMP_pressure;BME280_temperature;BME280_humidity;BME280_pressure;Samples;Min_cycle;Max_cycle;Signal;HPM_P1;HPM_P2
2023/05/15 00:00:43;;;;;;;49.63;26.30;;;10.50;99.90;;;;;;5012300;28;20018;-71
2023/05/15 00:03:08;;;;;;;42.72;25.30;;;10.50;99.90;;;;;;5012611;28;21661;-72
2023/05/15 00:05:34;;;;;;;41.35;23.25;;;10.50;99.90;;;;;;5012504;28;20045;-72
2023/05/15 00:08:00;;;;;;;40.75;23.73;;;10.50;99.90;;;;;;5009903;28;20078;-72
2023/05/15 00:10:25;;;;;;;40.65;23.80;;;10.40;99.90;;;;;;5011571;28;20038;-74
2023/05/15 00:12:51;;;;;;;43.00;24.48;;;10.40;99.90;;;;;;5011606;28;20041;-72
2023/05/15 00:15:17;;;;;;;41.55;23.73;;;10.40;99.90;;;;;;5010676;28;20782;-74
2023/05/15 00:17:42;;;;;;;43.72;24.48;;;10.40;99.90;;;;;;5012181;28;20046;-72
2023/05/15 00:20:09;;;;;;;41.58;24.58;;;10.30;99.90;;;;;;5006877;28;21886;-73
2023/05/15 00:22:34;;;;;;;40.20;21.88;;;10.30;99.90;;;;;;5011925;28;20049;-74
2023/05/15 00:25:00;;;;;;;40.83;23.13;;;10.30;99.90;;;;;;5011097;28;20156;-71
2023/05/15 00:27:26;;;;;;;43.47;23.42;;;10.30;99.90;;;;;;5010255;28;20100;-72
2023/05/15 00:29:57;;;;;;;46.47;24.83;;;10.30;99.90;;;;;;5007570;28;20109;-75
2023/05/15 00:32:23;;;;;;;44.35;25.13;;;10.30;99.90;;;;;;5011306;28;20030;-74
2023/05/15 00:34:48;;;;;;;40.53;21.70;;;10.30;99.90;;;;;;5011527;28;20055;-71
2023/05/15 00:37:14;;;;;;;39.17;22.15;;;10.30;99.90;;;;;;5010584;28;20389;-71
2023/05/15 00:39:39;;;;;;;40.80;23.55;;;10.30;99.90;;;;;;5008988;28;20095;-72
2023/05/15 00:42:06;;;;;;;43.55;22.60;;;10.30;99.90;;;;;;5010699;28;20030;-71
2023/05/15 00:44:33;;;;;;;41.83;21.95;;;10.30;99.90;;;;;;5010746;28;20486;-71
2023/05/15 00:47:01;;;;;;;40.83;22.00;;;10.30;99.90;;;;;;5011117;28;20045;-71
2023/05/15 00:49:28;;;;;;;36.28;20.25;;;10.30;99.90;;;;;;5010789;28;20038;-71
2023/05/15 00:51:56;;;;;;;41.85;22.48;;;10.40;99.90;;;;;;5010268;28;20109;-70
2023/05/15 00:54:21;;;;;;;44.38;25.63;;;10.50;99.90;;;;;;5011450;28;20022;-70
2023/05/15 00:56:49;;;;;;;37.42;21.35;;;10.50;99.90;;;;;;5010777;28;20032;-73
2023/05/15 00:59:16;;;;;;;36.28;19.65;;;10.50;99.90;;;;;;5009646;28;20022;-72
2023/05/15 01:01:44;;;;;;;32.08;18.98;;;10.60;99.90;;;;;;5008708;28;20032;-71
2023/05/15 01:04:10;;;;;;;34.00;19.48;;;10.60;99.90;;;;;;5010342;28;20030;-71
2023/05/15 01:06:39;;;;;;;37.10;19.98;;;10.60;99.90;;;;;;5010482;28;20022;-72
2023/05/15 01:09:07;;;;;;;32.95;19.63;;;10.60;99.90;;;;;;5009241;28;20482;-69
2023/05/15 01:11:36;;;;;;;34.80;18.67;;;10.70;99.90;;;;;;5010204;28;20038;-71
2023/05/15 01:14:06;;;;;;;32.00;18.80;;;10.60;99.90;;;;;;5010532;28;20084;-70
2023/05/15 01:16:33;;;;;;;32.92;18.77;;;10.70;99.90;;;;;;5010172;28;20021;-70
2023/05/15 01:18:58;;;;;;;31.13;18.77;;;10.70;99.90;;;;;;5009321;28;20060;-71
2023/05/15 01:21:24;;;;;;;31.83;18.38;;;10.70;99.90;;;;;;5010399;28;20061;-70
2023/05/15 01:24:09;;;;;;;29.77;17.15;;;10.60;99.90;;;;;;5008591;28;20121;-71
2023/05/15 01:27:07;;;;;;;33.08;19.73;;;10.60;99.90;;;;;;5009343;28;20046;-73
2023/05/15 01:29:40;;;;;;;33.22;19.13;;;10.50;99.90;;;;;;4998396;28;20052;-71
2023/05/15 01:32:17;;;;;;;34.65;19.08;;;10.50;99.90;;;;;;5009464;28;20394;-70
2023/05/15 01:35:07;;;;;;;37.17;20.33;;;10.50;99.90;;;;;;5008169;28;20030;-71
2023/05/15 01:37:35;;;;;;;35.22;21.00;;;10.40;99.90;;;;;;5007567;28;20558;-70
2023/05/15 01:40:05;;;;;;;35.40;20.20;;;10.50;99.90;;;;;;5007701;28;20050;-70
2023/05/15 01:42:33;;;;;;;36.40;19.45;;;10.40;99.90;;;;;;5009099;28;20045;-70
2023/05/15 01:45:03;;;;;;;30.85;17.92;;;10.40;99.90;;;;;;5009228;28;20116;-70
2023/05/15 01:47:40;;;;;;;31.02;19.60;;;10.30;99.90;;;;;;5009866;28;20502;-71
2023/05/15 01:50:08;;;;;;;33.20;19.65;;;10.30;99.90;;;;;;5011808;28;20112;-70
2023/05/15 01:52:38;;;;;;;35.20;18.73;;;10.30;99.90;;;;;;5012351;28;20030;-71
2023/05/15 01:55:07;;;;;;;32.13;18.33;;;10.20;99.90;;;;;;5011150;28;20058;-71
2023/05/15 01:57:34;;;;;;;34.42;18.52;;;10.20;99.90;;;;;;5015457;28;20371;-71
2023/05/15 02:00:01;;;;;;;31.48;18.30;;;10.20;99.90;;;;;;5015243;28;20548;-71
2023/05/15 02:02:28;;;;;;;30.83;17.90;;;10.10;99.90;;;;;;5015477;28;20497;-71
2023/05/15 02:04:55;;;;;;;32.30;18.60;;;10.10;99.90;;;;;;5015396;28;20049;-71
2023/05/15 02:07:20;;;;;;;33.25;17.55;;;10.10;99.90;;;;;;5014221;28;20045;-70
2023/05/15 02:09:47;;;;;;;33.65;19.27;;;10.10;99.90;;;;;;5014050;28;20030;-73
2023/05/15 02:12:13;;;;;;;35.00;19.30;;;10.20;99.90;;;;;;5013533;28;20060;-72
2023/05/15 02:14:40;;;;;;;31.73;19.25;;;10.20;99.90;;;;;;5013440;28;20022;-70
2023/05/15 02:17:06;;;;;;;32.50;18.35;;;10.30;99.90;;;;;;5013241;28;20029;-70
2023/05/15 02:19:31;;;;;;;28.33;16.73;;;10.30;99.90;;;;;;5016072;28;20037;-70
2023/05/15 02:21:57;;;;;;;27.95;16.30;;;10.30;99.90;;;;;;5013304;28;20029;-71
2023/05/15 02:24:23;;;;;;;26.70;16.48;;;10.30;99.90;;;;;;5014049;28;20029;-70
2023/05/15 02:27:16;;;;;;;27.35;16.27;;;10.30;99.90;;;;;;5013861;28;20220;-69
2023/05/15 02:30:10;;;;;;;30.65;18.38;;;10.20;99.90;;;;;;5011517;28;20034;-69
2023/05/15 02:33:03;;;;;;;30.63;18.80;;;10.20;99.90;;;;;;5013069;28;20441;-70
2023/05/15 02:35:45;;;;;;;30.77;19.90;;;10.10;99.90;;;;;;5015484;28;20022;-70
2023/05/15 02:38:15;;;;;;;30.58;18.20;;;10.10;99.90;;;;;;5014087;28;20071;-71
2023/05/15 02:40:44;;;;;;;34.25;21.10;;;10.10;99.90;;;;;;5013214;28;20053;-72
2023/05/15 02:43:10;;;;;;;39.65;22.98;;;10.00;99.90;;;;;;5013162;28;20052;-69
2023/05/15 02:45:38;;;;;;;40.22;23.52;;;10.00;99.90;;;;;;5011406;28;20057;-70
2023/05/15 02:48:04;;;;;;;39.15;21.92;;;10.00;99.90;;;;;;5015375;28;20052;-69
2023/05/15 02:50:30;;;;;;;41.35;24.90;;;10.00;99.90;;;;;;5014827;28;20474;-68
2023/05/15 02:53:06;;;;;;;43.45;25.33;;;10.00;99.90;;;;;;5012443;28;20041;-72
2023/05/15 02:55:35;;;;;;;44.58;25.42;;;9.90;99.90;;;;;;5013181;28;20026;-70
2023/05/15 02:58:02;;;;;;;38.80;23.58;;;9.90;99.90;;;;;;5012153;28;20448;-70
2023/05/15 03:00:28;;;;;;;41.60;23.27;;;9.90;99.90;;;;;;5012306;28;20030;-69
2023/05/15 03:02:53;;;;;;;49.28;28.42;;;9.90;99.90;;;;;;5009733;28;20045;-70
2023/05/15 03:05:19;;;;;;;47.10;28.92;;;9.80;99.90;;;;;;5012388;28;20115;-70
2023/05/15 03:07:45;;;;;;;42.17;25.30;;;9.80;99.90;;;;;;5012068;28;20052;-70
2023/05/15 03:10:10;;;;;;;47.83;27.23;;;9.80;99.90;;;;;;5012385;28;20036;-69
2023/05/15 03:12:37;;;;;;;45.95;27.35;;;9.70;99.90;;;;;;5013048;28;20030;-71
2023/05/15 03:15:04;;;;;;;45.90;27.48;;;9.70;99.90;;;;;;5009429;28;20044;-71
2023/05/15 03:17:29;;;;;;;40.17;23.58;;;9.80;99.90;;;;;;5012499;28;20049;-70
2023/05/15 03:19:55;;;;;;;43.60;26.17;;;9.90;99.90;;;;;;5011160;28;20025;-71
2023/05/15 03:22:21;;;;;;;35.20;22.40;;;9.90;99.90;;;;;;5012219;28;20159;-71
2023/05/15 03:24:47;;;;;;;38.15;23.92;;;9.90;99.90;;;;;;5011955;28;20057;-70
2023/05/15 03:27:12;;;;;;;35.70;21.73;;;10.00;99.90;;;;;;5012528;28;20037;-70
2023/05/15 03:29:38;;;;;;;39.53;23.33;;;10.00;99.90;;;;;;5009272;28;20032;-70
2023/05/15 03:32:03;;;;;;;31.85;19.75;;;9.90;99.90;;;;;;5012783;28;20068;-70
2023/05/15 03:34:29;;;;;;;34.92;22.48;;;10.00;99.90;;;;;;5011071;28;20080;-68
2023/05/15 03:36:54;;;;;;;38.60;22.70;;;10.10;99.90;;;;;;5011871;28;20102;-70
2023/05/15 03:39:20;;;;;;;30.02;19.30;;;10.20;99.90;;;;;;5010774;28;20124;-70
2023/05/15 03:41:46;;;;;;;31.98;20.65;;;10.30;99.90;;;;;;5012101;28;20470;-70
2023/05/15 03:44:11;;;;;;;32.35;19.75;;;10.30;99.90;;;;;;5012057;28;20553;-70
2023/05/15 03:46:37;;;;;;;36.65;23.35;;;10.40;99.90;;;;;;5011420;28;20084;-71
2023/05/15 03:49:02;;;;;;;34.75;21.75;;;10.50;99.90;;;;;;5011959;28;21193;-69
2023/05/15 03:51:28;;;;;;;33.47;20.50;;;10.60;99.90;;;;;;5010548;28;20470;-69
2023/05/15 03:53:54;;;;;;;29.65;17.30;;;10.60;99.90;;;;;;5010268;28;20033;-69
2023/05/15 03:56:20;;;;;;;28.77;15.73;;;10.70;99.90;;;;;;5011791;28;20483;-69
2023/05/15 03:58:45;;;;;;;31.88;19.17;;;10.70;99.90;;;;;;5012062;28;20068;-70
2023/05/15 04:01:11;;;;;;;32.28;20.42;;;10.70;99.90;;;;;;5009373;28;20038;-70
2023/05/15 04:03:36;;;;;;;28.55;20.05;;;10.80;99.90;;;;;;5013464;28;20038;-70
2023/05/15 04:06:02;;;;;;;27.77;18.13;;;10.80;99.90;;;;;;5011744;28;20034;-71
2023/05/15 04:08:28;;;;;;;26.25;17.67;;;10.90;99.90;;;;;;5012814;28;20034;-71
2023/05/15 04:10:53;;;;;;;30.08;18.05;;;10.90;99.90;;;;;;5010023;28;20045;-71
2023/05/15 04:13:19;;;;;;;29.38;18.63;;;10.90;99.90;;;;;;5010247;28;20447;-69
2023/05/15 04:15:45;;;;;;;28.50;16.73;;;11.00;99.90;;;;;;5007870;28;20433;-70
2023/05/15 04:18:10;;;;;;;29.88;21.33;;;11.10;99.90;;;;;;5012504;28;20026;-70
2023/05/15 04:20:36;;;;;;;28.17;17.02;;;11.10;99.90;;;;;;5012002;28;20485;-71
2023/05/15 04:23:03;;;;;;;30.20;18.77;;;11.30;99.90;;;;;;5012643;28;20365;-70
2023/05/15 04:25:28;;;;;;;28.23;16.63;;;11.30;99.90;;;;;;5012191;28;20026;-69
2023/05/15 04:27:54;;;;;;;26.25;16.15;;;11.40;99.90;;;;;;5012592;28;20038;-70
2023/05/15 04:30:20;;;;;;;28.67;18.60;;;11.40;99.90;;;;;;5010633;28;20036;-69
2023/05/15 04:32:46;;;;;;;25.85;17.52;;;11.50;99.90;;;;;;5011693;28;20030;-70
2023/05/15 04:35:14;;;;;;;22.67;13.98;;;11.50;99.90;;;;;;5011579;28;20519;-71
2023/05/15 04:37:40;;;;;;;25.10;14.82;;;11.60;99.90;;;;;;5011265;28;20089;-70
2023/05/15 04:40:07;;;;;;;24.70;13.65;;;11.60;99.90;;;;;;5012216;28;20432;-71
2023/05/15 04:42:33;;;;;;;26.60;15.45;;;11.70;99.90;;;;;;5011895;28;20091;-71
2023/05/15 04:44:59;;;;;;;23.38;13.68;;;11.70;99.90;;;;;;5009788;28;20037;-71
2023/05/15 04:47:25;;;;;;;23.05;13.40;;;11.80;99.90;;;;;;5006458;28;20115;-72
2023/05/15 04:49:50;;;;;;;23.05;14.07;;;11.90;99.90;;;;;;5012053;28;20458;-70
2023/05/15 04:52:16;;;;;;;23.35;14.05;;;12.00;99.90;;;;;;5011742;28;20621;-71
2023/05/15 04:54:42;;;;;;;21.95;12.82;;;12.00;99.90;;;;;;5011729;28;20123;-73
2023/05/15 04:57:07;;;;;;;24.95;15.52;;;12.10;99.90;;;;;;5010894;28;20112;-70
2023/05/15 04:59:33;;;;;;;22.00;13.52;;;12.10;99.90;;;;;;5011576;28;20041;-72
2023/05/15 05:01:59;;;;;;;20.83;13.00;;;12.10;99.90;;;;;;5009728;28;20030;-71
2023/05/15 05:04:25;;;;;;;22.98;14.75;;;12.20;99.90;;;;;;5010573;28;20492;-73
2023/05/15 05:06:51;;;;;;;28.35;16.73;;;12.20;99.90;;;;;;5010718;28;20041;-72
2023/05/15 05:09:18;;;;;;;25.83;16.92;;;12.30;99.90;;;;;;5011162;28;20548;-70
2023/05/15 05:11:44;;;;;;;29.70;17.67;;;12.30;99.90;;;;;;5011732;28;20046;-71
2023/05/15 05:14:10;;;;;;;29.77;17.42;;;12.30;99.90;;;;;;5010864;28;20034;-72
2023/05/15 05:16:36;;;;;;;35.33;19.75;;;12.30;99.90;;;;;;5011280;28;20101;-71
2023/05/15 05:19:02;;;;;;;33.28;19.73;;;12.40;99.90;;;;;;5010519;28;20101;-69
2023/05/15 05:21:28;;;;;;;36.17;22.20;;;12.40;99.90;;;;;;5011009;28;20029;-71
2023/05/15 05:23:54;;;;;;;39.33;23.23;;;12.50;99.90;;;;;;5012014;28;20088;-71
2023/05/15 05:26:20;;;;;;;36.55;23.73;;;12.50;99.90;;;;;;5013391;28;20030;-71
2023/05/15 05:28:46;;;;;;;39.28;22.85;;;12.50;99.90;;;;;;5010773;28;20104;-71
2023/05/15 05:31:12;;;;;;;35.80;22.17;;;12.60;99.90;;;;;;5014073;28;20356;-71
2023/05/15 05:33:37;;;;;;;34.08;21.95;;;12.70;99.90;;;;;;5014074;28;20466;-71
2023/05/15 05:36:04;;;;;;;33.95;20.90;;;12.90;99.90;;;;;;5014694;28;20029;-72
2023/05/15 05:38:30;;;;;;;37.00;21.33;;;13.10;99.90;;;;;;5015701;28;21200;-71
2023/05/15 05:40:55;;;;;;;30.55;21.10;;;13.20;99.90;;;;;;5014996;28;20113;-71
2023/05/15 05:43:21;;;;;;;31.65;19.58;;;13.40;99.90;;;;;;5014888;28;20033;-71
2023/05/15 05:45:47;;;;;;;30.10;19.40;;;13.60;99.90;;;;;;5014522;28;20417;-72
2023/05/15 05:48:12;;;;;;;31.45;20.52;;;13.70;99.90;;;;;;5014944;28;20387;-71
2023/05/15 05:50:38;;;;;;;32.03;21.10;;;13.90;99.90;;;;;;5015032;28;20033;-71
2023/05/15 05:53:04;;;;;;;28.42;18.85;;;14.00;99.90;;;;;;5013457;28;20460;-71
2023/05/15 05:55:30;;;;;;;34.55;21.73;;;14.20;99.90;;;;;;5014654;28;20462;-72
2023/05/15 05:57:55;;;;;;;31.75;20.08;;;14.30;99.90;;;;;;5014991;28;20056;-72
2023/05/15 06:00:21;;;;;;;26.65;17.75;;;14.50;99.90;;;;;;5011847;28;20026;-73
2023/05/15 06:02:47;;;;;;;29.38;17.90;;;14.60;99.90;;;;;;5006510;28;20022;-73
2023/05/15 06:05:13;;;;;;;27.60;18.30;;;14.80;99.90;;;;;;5013770;28;20030;-73
2023/05/15 06:07:39;;;;;;;29.98;18.85;;;14.90;99.90;;;;;;5013996;28;20045;-71
2023/05/15 06:10:06;;;;;;;30.08;18.92;;;15.10;99.90;;;;;;5013299;28;20494;-72
2023/05/15 06:12:31;;;;;;;28.77;19.42;;;15.40;99.90;;;;;;5014950;28;20034;-70
2023/05/15 06:14:57;;;;;;;30.38;19.90;;;15.70;99.90;;;;;;5007906;28;20087;-71
2023/05/15 06:17:23;;;;;;;28.48;18.77;;;15.90;99.90;;;;;;5014344;28;20030;-71
2023/05/15 06:19:48;;;;;;;30.65;20.23;;;16.20;99.90;;;;;;5012799;28;20030;-71
2023/05/15 06:22:14;;;;;;;31.38;19.30;;;16.30;99.90;;;;;;5014511;28;20034;-72
2023/05/15 06:24:39;;;;;;;29.45;19.17;;;16.30;99.90;;;;;;5013379;28;20026;-71
2023/05/15 06:27:05;;;;;;;30.77;19.63;;;16.40;99.90;;;;;;5013075;28;20145;-71
2023/05/15 06:29:30;;;;;;;35.38;20.05;;;16.40;99.90;;;;;;5009826;28;20034;-71
2023/05/15 06:31:56;;;;;;;30.85;18.20;;;16.40;99.90;;;;;;5018947;28;20030;-71
2023/05/15 06:34:22;;;;;;;29.27;18.75;;;16.40;99.90;;;;;;5016945;28;20044;-72
2023/05/15 06:36:47;;;;;;;29.88;18.90;;;16.40;99.90;;;;;;5009571;28;20030;-72
2023/05/15 06:39:13;;;;;;;28.98;18.73;;;16.30;99.90;;;;;;5012160;28;20498;-72
2023/05/15 06:41:38;;;;;;;29.40;17.85;;;16.20;99.90;;;;;;5013741;28;20374;-72
2023/05/15 06:44:04;;;;;;;32.22;20.15;;;16.20;99.90;;;;;;5013639;28;20509;-72
2023/05/15 06:46:30;;;;;;;32.17;18.67;;;16.00;99.90;;;;;;5012770;28;20034;-72
2023/05/15 06:48:55;;;;;;;29.25;19.27;;;15.90;99.90;;;;;;5013410;28;20398;-72
2023/05/15 06:51:21;;;;;;;28.63;18.60;;;16.00;99.90;;;;;;5013238;28;20034;-72
2023/05/15 06:53:46;;;;;;;29.98;19.35;;;16.00;99.90;;;;;;5013773;28;20030;-72
2023/05/15 06:56:12;;;;;;;26.25;17.30;;;16.10;99.90;;;;;;5013515;28;20109;-72
2023/05/15 06:58:37;;;;;;;35.85;20.80;;;16.40;99.90;;;;;;5012921;28;20040;-70
2023/05/15 07:01:05;;;;;;;31.90;19.10;;;16.70;99.90;;;;;;5012552;28;20022;-72
2023/05/15 07:03:30;;;;;;;27.60;18.25;;;17.10;99.90;;;;;;5013902;28;20034;-72
2023/05/15 07:05:56;;;;;;;32.65;20.60;;;17.50;99.90;;;;;;5012704;28;20036;-71
2023/05/15 07:08:22;;;;;;;25.98;17.48;;;17.60;99.90;;;;;;5013552;28;20037;-71
2023/05/15 07:10:48;;;;;;;27.33;17.75;;;17.60;99.90;;;;;;5012826;28;20030;-72
2023/05/15 07:13:16;;;;;;;26.30;16.58;;;17.60;99.90;;;;;;5009318;28;20034;-70
2023/05/15 07:15:42;;;;;;;26.13;16.45;;;17.50;99.90;;;;;;5012903;28;20105;-72
2023/05/15 07:18:07;;;;;;;25.65;15.45;;;17.40;99.90;;;;;;5015525;28;20117;-72
2023/05/15 07:20:33;;;;;;;26.52;15.85;;;17.40;99.90;;;;;;5013264;28;20037;-72
2023/05/15 07:22:59;;;;;;;32.08;17.52;;;17.30;99.90;;;;;;5013131;28;20026;-71
2023/05/15 07:25:24;;;;;;;30.85;18.50;;;17.20;99.90;;;;;;5013646;28;20034;-70
2023/05/15 07:27:50;;;;;;;27.27;17.30;;;17.10;99.90;;;;;;5013265;28;20513;-73
2023/05/15 07:30:15;;;;;;;31.65;19.42;;;16.90;99.90;;;;;;5006179;28;20091;-74
2023/05/15 07:32:41;;;;;;;30.13;16.83;;;16.80;99.90;;;;;;5003832;28;20021;-72
2023/05/15 07:35:07;;;;;;;27.95;17.20;;;16.80;99.90;;;;;;5026766;28;20037;-72
2023/05/15 07:37:32;;;;;;;24.60;14.90;;;16.80;99.90;;;;;;5011955;28;20037;-74
2023/05/15 07:39:58;;;;;;;27.00;14.93;;;16.70;99.90;;;;;;5013462;28;20540;-71
2023/05/15 07:42:24;;;;;;;26.42;15.82;;;16.70;99.90;;;;;;5013476;28;20512;-73
2023/05/15 07:44:50;;;;;;;29.60;17.13;;;16.70;99.90;;;;;;5005390;28;20022;-72
2023/05/15 07:47:16;;;;;;;30.83;17.23;;;16.60;99.90;;;;;;5011734;28;20030;-73
2023/05/15 07:49:42;;;;;;;27.67;14.95;;;16.50;99.90;;;;;;5013410;28;20028;-74
2023/05/15 07:52:07;;;;;;;27.92;15.40;;;16.50;99.90;;;;;;5013933;28;20438;-74
2023/05/15 07:54:33;;;;;;;25.83;15.02;;;16.40;99.90;;;;;;5012165;28;20084;-72
2023/05/15 07:56:58;;;;;;;29.65;15.65;;;16.40;99.90;;;;;;5012999;28;20026;-75
2023/05/15 07:59:24;;;;;;;31.13;18.80;;;16.30;99.90;;;;;;5007496;28;20041;-70
2023/05/15 08:01:50;;;;;;;25.73;15.00;;;16.20;99.90;;;;;;5012047;28;20053;-71
2023/05/15 08:04:15;;;;;;;26.92;16.02;;;16.20;99.90;;;;;;5012516;28;20120;-76
2023/05/15 08:06:41;;;;;;;28.85;17.15;;;16.10;99.90;;;;;;5010840;28;20049;-74
2023/05/15 08:09:08;;;;;;;30.08;16.48;;;16.10;99.90;;;;;;5012868;28;20030;-72
2023/05/15 08:11:34;;;;;;;28.13;17.27;;;16.10;99.90;;;;;;5013625;28;20052;-72
2023/05/15 08:14:00;;;;;;;28.17;15.60;;;16.00;99.90;;;;;;5007726;28;20022;-72
2023/05/15 08:16:26;;;;;;;29.05;17.42;;;16.10;99.90;;;;;;5006826;28;20556;-72
2023/05/15 08:18:59;;;;;;;30.15;17.92;;;16.00;99.90;;;;;;5012100;28;20088;-74
2023/05/15 08:21:26;;;;;;;28.83;17.17;;;15.90;99.90;;;;;;5015536;28;20030;-76
2023/05/15 08:23:52;;;;;;;26.67;16.83;;;15.90;99.90;;;;;;5012321;28;20025;-72
2023/05/15 08:26:17;;;;;;;30.77;16.88;;;15.80;99.90;;;;;;5011822;28;20099;-72
2023/05/15 08:28:43;;;;;;;26.60;15.95;;;15.80;99.90;;;;;;5010195;28;20037;-72
2023/05/15 08:31:08;;;;;;;26.73;17.20;;;15.70;99.90;;;;;;5011932;28;20108;-73
2023/05/15 08:33:34;;;;;;;28.70;17.90;;;15.70;99.90;;;;;;5012631;28;20409;-71
2023/05/15 08:36:00;;;;;;;27.30;17.30;;;15.60;99.90;;;;;;5011725;28;20036;-72
2023/05/15 08:38:25;;;;;;;31.48;20.13;;;15.70;99.90;;;;;;5012254;28;20129;-72
2023/05/15 08:40:53;;;;;;;25.15;15.90;;;15.80;99.90;;;;;;5011610;28;20041;-73
2023/05/15 08:43:21;;;;;;;24.75;16.15;;;15.90;99.90;;;;;;5010258;28;20474;-72
2023/05/15 08:45:48;;;;;;;28.83;17.60;;;15.90;99.90;;;;;;5010048;28;20030;-71
2023/05/15 08:48:18;;;;;;;26.95;16.85;;;15.90;99.90;;;;;;5011532;28;20045;-73
2023/05/15 08:50:44;;;;;;;29.48;19.05;;;16.00;99.90;;;;;;5011737;28;20038;-72
2023/05/15 08:53:12;;;;;;;26.98;18.17;;;16.00;99.90;;;;;;5012186;28;20053;-71
2023/05/15 08:55:37;;;;;;;26.15;16.77;;;16.10;99.90;;;;;;5011467;28;20061;-72
2023/05/15 08:58:03;;;;;;;26.00;15.77;;;16.20;99.90;;;;;;5011832;28;20666;-72
2023/05/15 09:00:29;;;;;;;24.00;15.27;;;16.20;99.90;;;;;;5010850;28;20038;-72
2023/05/15 09:02:58;;;;;;;25.10;16.25;;;16.20;99.90;;;;;;5010524;28;20030;-72
2023/05/15 09:05:23;;;;;;;24.67;15.20;;;16.20;99.90;;;;;;5004087;28;20215;-72
2023/05/15 09:07:51;;;;;;;26.50;16.30;;;16.10;99.90;;;;;;5011028;28;20077;-71
2023/05/15 09:10:17;;;;;;;26.65;16.15;;;16.10;99.90;;;;;;5012017;28;20087;-71
2023/05/15 09:12:44;;;;;;;26.27;16.35;;;16.00;99.90;;;;;;5011093;28;20092;-72
2023/05/15 09:15:22;;;;;;;27.33;16.33;;;16.00;99.90;;;;;;5010992;28;20113;-72
2023/05/15 09:17:49;;;;;;;27.85;16.90;;;16.00;99.90;;;;;;5011573;28;20038;-72
2023/05/15 09:20:27;;;;;;;22.85;14.55;;;16.10;99.90;;;;;;5010038;28;20038;-72
2023/05/15 09:22:57;;;;;;;24.42;15.15;;;16.10;99.90;;;;;;5007275;28;20072;-73
2023/05/15 09:25:42;;;;;;;23.98;15.57;;;16.10;99.90;;;;;;5010895;28;20026;-72
2023/05/15 09:28:10;;;;;;;25.30;14.80;;;16.10;99.90;;;;;;5010877;28;20041;-76
2023/05/15 09:30:41;;;;;;;24.75;14.63;;;16.00;99.90;;;;;;5008999;28;20037;-73
2023/05/15 09:33:08;;;;;;;23.73;13.95;;;16.00;99.90;;;;;;5017282;28;20060;-72
2023/05/15 09:35:36;;;;;;;22.13;14.13;;;16.00;99.90;;;;;;5009585;28;20026;-72
2023/05/15 09:38:06;;;;;;;23.20;14.82;;;16.10;99.90;;;;;;5007534;28;20037;-72
2023/05/15 09:40:32;;;;;;;22.55;14.38;;;16.10;99.90;;;;;;5023247;28;20042;-73
2023/05/15 09:42:59;;;;;;;23.80;15.13;;;16.10;99.90;;;;;;5012907;28;20084;-76
2023/05/15 09:45:25;;;;;;;29.30;16.23;;;16.20;99.90;;;;;;5009172;28;20040;-72
2023/05/15 09:47:51;;;;;;;23.42;14.50;;;16.20;99.90;;;;;;5021678;28;20113;-74
2023/05/15 09:50:22;;;;;;;24.20;15.00;;;16.20;99.90;;;;;;5015065;28;20038;-71
2023/05/15 09:52:48;;;;;;;25.08;14.48;;;16.20;99.90;;;;;;5007952;28;20037;-71
2023/05/15 09:55:19;;;;;;;23.90;15.05;;;16.30;99.90;;;;;;5010868;28;20030;-72
2023/05/15 09:58:12;;;;;;;22.50;13.23;;;16.60;99.90;;;;;;5020392;28;20036;-71
2023/05/15 10:00:39;;;;;;;22.30;12.10;;;17.00;99.90;;;;;;5024106;28;20092;-74
2023/05/15 10:03:06;;;;;;;19.00;11.18;;;17.20;99.90;;;;;;4996294;28;20068;-72
2023/05/15 10:05:32;;;;;;;20.10;12.48;;;17.40;99.90;;;;;;5011474;28;20037;-76
2023/05/15 10:07:59;;;;;;;18.08;10.23;;;17.50;99.90;;;;;;5017215;28;20045;-75
2023/05/15 10:10:26;;;;;;;20.98;10.48;;;17.60;99.90;;;;;;5010750;28;20030;-72
2023/05/15 10:12:58;;;;;;;17.00;10.38;;;17.70;99.90;;;;;;5014171;28;20028;-74
2023/05/15 10:15:25;;;;;;;18.50;9.70;;;18.00;99.90;;;;;;5021875;28;20056;-73
2023/05/15 10:17:52;;;;;;;17.23;8.95;;;18.20;99.90;;;;;;5017225;28;20040;-73
2023/05/15 10:20:19;;;;;;;16.48;9.63;;;18.50;99.90;;;;;;5013605;28;20057;-72
2023/05/15 10:22:49;;;;;;;17.75;9.05;;;18.70;99.90;;;;;;5010841;28;20038;-73
2023/05/15 10:25:22;;;;;;;15.70;7.10;;;18.80;99.90;;;;;;5012603;28;20021;-72
2023/05/15 10:27:50;;;;;;;15.55;7.68;;;18.80;99.90;;;;;;5024076;28;20490;-72
2023/05/15 10:30:16;;;;;;;13.50;6.47;;;19.30;99.90;;;;;;5014091;28;20116;-76
2023/05/15 10:32:43;;;;;;;14.13;6.40;;;19.80;99.90;;;;;;5015866;28;20018;-72
2023/05/15 10:35:10;;;;;;;16.25;6.00;;;20.30;99.90;;;;;;5026220;28;20030;-72
2023/05/15 10:37:37;;;;;;;14.02;6.50;;;20.80;99.90;;;;;;5033237;28;20482;-74
2023/05/15 10:40:09;;;;;;;12.88;5.95;;;21.00;99.90;;;;;;5032598;28;20065;-72
2023/05/15 10:42:36;;;;;;;16.13;5.75;;;20.90;99.90;;;;;;5028536;28;20018;-72
2023/05/15 10:45:02;;;;;;;16.92;7.25;;;20.60;99.90;;;;;;5014036;28;20015;-72
2023/05/15 10:47:32;;;;;;;15.18;6.60;;;20.30;99.90;;;;;;5019106;28;20081;-73
2023/05/15 10:49:59;;;;;;;13.00;5.82;;;20.00;99.90;;;;;;5014693;28;20022;-73
2023/05/15 10:52:24;;;;;;;15.73;6.93;;;19.70;99.90;;;;;;5014876;28;20030;-72
2023/05/15 10:54:52;;;;;;;17.02;6.57;;;19.60;99.90;;;;;;5016488;28;20037;-73
2023/05/15 10:57:20;;;;;;;15.68;7.38;;;19.50;99.90;;;;;;5033464;28;20454;-76
2023/05/15 10:59:46;;;;;;;15.35;7.13;;;19.60;99.90;;;;;;5033251;28;20104;-72
2023/05/15 11:02:20;;;;;;;16.20;7.10;;;19.60;99.90;;;;;;5016609;28;20112;-73
2023/05/15 11:04:46;;;;;;;18.67;8.50;;;19.50;99.90;;;;;;5014798;28;20037;-73
2023/05/15 11:07:14;;;;;;;16.60;7.15;;;19.40;99.90;;;;;;5014037;28;20030;-74
2023/05/15 11:09:40;;;;;;;22.17;9.55;;;19.20;99.90;;;;;;5016783;28;20026;-74
2023/05/15 11:12:13;;;;;;;24.17;10.73;;;18.90;99.90;;;;;;5017381;28;20033;-72
2023/05/15 11:14:59;;;;;;;26.30;12.27;;;18.70;99.90;;;;;;5021426;28;20030;-72
2023/05/15 11:17:25;;;;;;;24.08;11.60;;;18.50;99.90;;;;;;5014230;28;20041;-76
2023/05/15 11:19:51;;;;;;;24.48;12.07;;;18.40;99.90;;;;;;5027198;28;20044;-72
2023/05/15 11:22:27;;;;;;;25.45;12.43;;;18.30;99.90;;;;;;5029961;28;20381;-72
2023/05/15 11:24:58;;;;;;;21.35;9.77;;;18.20;99.90;;;;;;5031353;28;20025;-74
2023/05/15 11:27:25;;;;;;;21.95;9.27;;;18.10;99.90;;;;;;5018941;28;20037;-72
2023/05/15 11:30:09;;;;;;;18.23;7.50;;;17.90;99.90;;;;;;5013819;28;20465;-73
2023/05/15 11:33:01;;;;;;;16.08;7.13;;;17.80;99.90;;;;;;5008060;28;20065;-73
2023/05/15 11:35:41;;;;;;;14.02;6.10;;;17.80;99.90;;;;;;5006284;28;20596;-73
2023/05/15 11:38:10;;;;;;;14.68;6.18;;;17.80;99.90;;;;;;5021568;28;20099;-73
2023/05/15 11:40:51;;;;;;;12.18;5.80;;;17.70;99.90;;;;;;5024238;28;20036;-75
2023/05/15 11:43:25;;;;;;;18.50;5.72;;;17.50;99.90;;;;;;5017438;28;20099;-72
2023/05/15 11:46:02;;;;;;;11.57;4.15;;;17.40;99.90;;;;;;5031463;28;20087;-75
2023/05/15 11:48:41;;;;;;;8.70;4.13;;;17.50;99.90;;;;;;5017115;28;20045;-72
2023/05/15 11:51:20;;;;;;;8.73;3.08;;;17.50;99.90;;;;;;5019939;28;20025;-72
2023/05/15 11:53:49;;;;;;;6.40;3.17;;;17.60;99.90;;;;;;5023804;28;20096;-72
2023/05/15 11:56:19;;;;;;;8.75;3.35;;;17.80;99.90;;;;;;5015166;28;20041;-72
2023/05/15 11:58:47;;;;;;;9.57;3.55;;;17.90;99.90;;;;;;5021570;28;20038;-75
2023/05/15 12:01:13;;;;;;;13.90;3.95;;;17.90;99.90;;;;;;5016104;28;20022;-73
2023/05/15 12:03:39;;;;;;;13.95;3.85;;;17.80;99.90;;;;;;5026269;28;21187;-71
2023/05/15 12:06:05;;;;;;;9.10;2.90;;;17.70;99.90;;;;;;5017224;28;20424;-72
2023/05/15 12:08:36;;;;;;;7.68;2.53;;;17.70;99.90;;;;;;5022628;28;20053;-72
2023/05/15 12:11:03;;;;;;;10.70;3.10;;;17.70;99.90;;;;;;5016943;28;20037;-73
2023/05/15 12:13:30;;;;;;;10.63;2.90;;;17.70;99.90;;;;;;5009197;28;20267;-73
2023/05/15 12:15:56;;;;;;;5.97;2.80;;;17.70;99.90;;;;;;5012468;28;20076;-74
2023/05/15 12:18:22;;;;;;;9.82;2.90;;;17.70;99.90;;;;;;5024769;28;20564;-73
2023/05/15 12:20:50;;;;;;;10.93;2.40;;;17.60;99.90;;;;;;5028352;28;20386;-72
2023/05/15 12:23:16;;;;;;;6.32;2.38;;;17.60;99.90;;;;;;5003037;28;20459;-72
2023/05/15 12:25:45;;;;;;;7.57;2.75;;;17.60;99.90;;;;;;5027161;28;20132;-72
2023/05/15 12:28:12;;;;;;;10.88;3.13;;;17.60;99.90;;;;;;5015595;28;20064;-72
2023/05/15 12:30:41;;;;;;;14.50;3.00;;;17.60;99.90;;;;;;5011061;28;20124;-74